Time;durP1;ratioP1;P1;durP2;ratioP2;P2;SDS_P1;SDS_P2;PMS_P1;PMS_P2;Temp;Humidity;BMP_temperature;BMP_pressure;BME280_temperature;BME280_humidity;BME280_pressure;Samples;Min_cycle;Max_cycle;Signal;HPM_P1;HPM_P2
2021/04/21 00:01:17;;;;;;;0.17;0.17;;;9.50;99.90;;;;;;4960359;28;20121;-86
2021/04/21 00:03:44;;;;;;;0.05;0.05;;;9.50;99.90;;;;;;4982894;28;20459;-86
2021/04/21 00:06:13;;;;;;;0.30;0.30;;;9.40;99.90;;;;;;4997780;28;20398;-88
2021/04/21 00:08:39;;;;;;;0.10;0.10;;;9.40;99.90;;;;;;5003395;28;20238;-88
2021/04/21 00:11:06;;;;;;;0.00;0.00;;;9.40;99.90;;;;;;5003573;28;20025;-88
2021/04/21 00:13:33;;;;;;;0.00;0.00;;;9.20;99.90;;;;;;5003429;28;20073;-87
2021/04/21 00:15:59;;;;;;;0.13;0.13;;;9.30;99.90;;;;;;5007043;28;20042;-88
2021/04/21 00:18:26;;;;;;;0.47;0.37;;;9.30;99.90;;;;;;5007129;28;20030;-88
2021/04/21 00:20:59;;;;;;;0.10;0.10;;;9.50;99.90;;;;;;5008454;28;20045;-88
2021/04/21 00:23:27;;;;;;;0.20;0.20;;;9.60;99.90;;;;;;4998692;28;20149;-89
2021/04/21 00:25:56;;;;;;;0.20;0.20;;;9.50;99.90;;;;;;4999508;28;20036;-87
2021/04/21 00:28:26;;;;;;;0.10;0.10;;;9.70;99.90;;;;;;5004316;28;20507;-88
2021/04/21 00:30:54;;;;;;;0.08;0.08;;;9.60;99.90;;;;;;5001616;28;20038;-88
2021/04/21 00:33:22;;;;;;;1.55;0.55;;;9.70;99.90;;;;;;5000574;28;20410;-88
2021/04/21 00:35:50;;;;;;;0.57;0.57;;;9.70;99.90;;;;;;5014704;28;20087;-87
2021/04/21 00:38:19;;;;;;;0.15;0.15;;;9.70;99.90;;;;;;5009035;28;20061;-88
2021/04/21 00:40:44;;;;;;;0.10;0.10;;;9.80;99.90;;;;;;4995174;28;20478;-87
2021/04/21 00:43:29;;;;;;;0.10;0.10;;;9.80;99.90;;;;;;5002401;28;20037;-87
2021/04/21 00:46:18;;;;;;;0.10;0.10;;;9.90;99.90;;;;;;5009090;28;20030;-88
2021/04/21 00:48:55;;;;;;;0.00;0.00;;;9.70;99.90;;;;;;4998729;28;20555;-87
2021/04/21 00:51:41;;;;;;;0.10;0.10;;;9.10;99.90;;;;;;5001484;28;20061;-87
2021/04/21 00:54:33;;;;;;;0.10;0.10;;;9.20;99.90;;;;;;5000948;28;20023;-88
2021/04/21 00:57:10;;;;;;;0.30;0.30;;;9.40;99.90;;;;;;4989980;28;20035;-88
2021/04/21 01:00:04;;;;;;;0.47;0.47;;;9.60;99.90;;;;;;4999792;28;20497;-88
2021/04/21 01:02:35;;;;;;;0.20;0.20;;;9.40;99.90;;;;;;5021210;28;20041;-88
2021/04/21 01:05:15;;;;;;;0.10;0.10;;;9.40;99.90;;;;;;4992659;28;20083;-87
2021/04/21 01:07:42;;;;;;;0.63;0.63;;;9.40;99.90;;;;;;4996403;28;20498;-88
2021/04/21 01:10:10;;;;;;;0.20;0.20;;;9.40;99.90;;;;;;5000656;28;20042;-88
2021/04/21 01:12:37;;;;;;;14.25;0.57;;;9.30;99.90;;;;;;5006978;28;20037;-88
2021/04/21 01:15:04;;;;;;;;;;;9.30;99.90;;;;;;4999254;28;20036;-88
2021/04/21 01:17:32;;;;;;;0.00;0.00;;;9.50;99.90;;;;;;5002320;28;20035;-87
2021/04/21 01:20:09;;;;;;;0.30;0.30;;;9.50;99.90;;;;;;5001426;28;20548;-87
2021/04/21 01:22:38;;;;;;;;;;;9.70;99.90;;;;;;4992880;28;20084;-88
2021/04/21 01:25:23;;;;;;;0.10;0.10;;;9.60;99.90;;;;;;5020387;28;20599;-89
2021/04/21 01:28:11;;;;;;;0.00;0.00;;;9.60;99.90;;;;;;5002235;28;20037;-87
2021/04/21 01:30:42;;;;;;;0.30;0.30;;;9.60;99.90;;;;;;5006735;28;20033;-88
2021/04/21 01:33:14;;;;;;;0.25;0.25;;;9.40;99.90;;;;;;4999683;28;20454;-88
2021/04/21 01:35:48;;;;;;;0.00;0.00;;;9.30;99.90;;;;;;5003220;28;20022;-87
2021/04/21 01:38:18;;;;;;;0.25;0.25;;;9.40;99.90;;;;;;5007675;28;20032;-86
2021/04/21 01:40:46;;;;;;;0.22;0.22;;;9.20;99.90;;;;;;5024112;28;20033;-86
2021/04/21 01:43:19;;;;;;;0.25;0.20;;;9.20;99.90;;;;;;5008108;28;20032;-87
2021/04/21 01:45:48;;;;;;;0.68;0.68;;;9.20;99.90;;;;;;4996325;28;20025;-86
2021/04/21 01:48:24;;;;;;;0.10;0.10;;;9.20;99.90;;;;;;4996012;28;20026;-87
2021/04/21 01:50:52;;;;;;;0.10;0.10;;;9.20;99.90;;;;;;4990212;28;20018;-87
2021/04/21 01:53:41;;;;;;;0.25;0.25;;;9.20;99.90;;;;;;4989564;28;20421;-87
2021/04/21 01:56:20;;;;;;;0.00;0.00;;;9.20;99.90;;;;;;5002758;28;20037;-87
2021/04/21 01:59:04;;;;;;;1.13;0.68;;;9.20;99.90;;;;;;5003534;28;20058;-86
2021/04/21 02:01:29;;;;;;;1.65;0.40;;;9.10;99.90;;;;;;4994439;28;20108;-86
2021/04/21 02:04:04;;;;;;;0.35;0.35;;;9.10;61.50;;;;;;4990960;28;20085;-87
2021/04/21 02:06:54;;;;;;;0.20;0.20;;;9.10;99.90;;;;;;5003405;28;20022;-86
2021/04/21 02:09:57;;;;;;;0.10;0.10;;;9.00;99.90;;;;;;5002376;28;20409;-86
2021/04/21 02:12:38;;;;;;;0.25;0.22;;;8.90;99.90;;;;;;5006704;28;20509;-86
2021/04/21 02:15:37;;;;;;;0.35;0.35;;;8.80;99.90;;;;;;4999683;28;20052;-86
2021/04/21 02:18:26;;;;;;;0.30;0.30;;;8.70;1.00;;;;;;5001862;28;20047;-86
2021/04/21 02:20:58;;;;;;;0.20;0.20;;;8.60;99.90;;;;;;5008543;28;20026;-87
2021/04/21 02:23:30;;;;;;;0.15;0.15;;;8.60;99.90;;;;;;4999621;28;20045;-87
2021/04/21 02:26:08;;;;;;;0.28;0.28;;;8.70;99.90;;;;;;5005582;28;20181;-87
2021/04/21 02:28:41;;;;;;;0.20;0.20;;;8.70;99.90;;;;;;4997207;28;20026;-86
2021/04/21 02:31:21;;;;;;;0.10;0.10;;;8.80;99.90;;;;;;5001515;28;20022;-86
2021/04/21 02:33:59;;;;;;;0.22;0.22;;;8.60;99.90;;;;;;5004708;28;20037;-86
2021/04/21 02:36:36;;;;;;;0.10;0.10;;;8.60;99.90;;;;;;5006873;28;20057;-86
2021/04/21 02:39:24;;;;;;;0.20;0.20;;;8.60;99.90;;;;;;4998795;28;20033;-86
2021/04/21 02:42:07;;;;;;;0.20;0.20;;;8.80;99.90;;;;;;4996655;28;20034;-87
2021/04/21 02:45:14;;;;;;;1.08;0.77;;;8.80;99.90;;;;;;5004788;28;20027;-86
2021/04/21 02:47:53;;;;;;;0.10;0.10;;;8.70;99.90;;;;;;5001865;28;20034;-85
2021/04/21 02:50:30;;;;;;;0.38;0.38;;;8.90;99.90;;;;;;4995790;28;20044;-86
2021/04/21 02:53:33;;;;;;;0.10;0.10;;;8.90;99.90;;;;;;5000875;28;20661;-86
2021/04/21 02:56:04;;;;;;;1.55;0.82;;;9.00;99.90;;;;;;4996047;28;20041;-88
2021/04/21 02:58:45;;;;;;;0.00;0.00;;;9.00;99.90;;;;;;4993943;28;20751;-87
2021/04/21 03:01:47;;;;;;;0.10;0.10;;;8.80;99.90;;;;;;4986910;28;20794;-87
2021/04/21 03:04:19;;;;;;;0.38;0.30;;;8.80;99.90;;;;;;4986876;28;20030;-86
2021/04/21 03:06:49;;;;;;;0.45;0.45;;;8.90;99.90;;;;;;5005133;28;20038;-86
2021/04/21 03:09:21;;;;;;;0.55;0.55;;;8.80;99.90;;;;;;4988946;28;20015;-86
2021/04/21 03:11:49;;;;;;;0.10;0.10;;;8.80;99.90;;;;;;4985993;28;20125;-86
2021/04/21 03:14:22;;;;;;;0.00;0.00;;;8.70;99.90;;;;;;4992607;28;20129;-86
2021/04/21 03:16:56;;;;;;;0.55;0.55;;;8.70;99.90;;;;;;4990460;28;20148;-86
2021/04/21 03:19:27;;;;;;;0.10;0.10;;;8.80;99.90;;;;;;5003484;28;20120;-87
2021/04/21 03:21:59;;;;;;;0.10;0.10;;;8.80;99.90;;;;;;5005231;28;20030;-86
2021/04/21 03:24:28;;;;;;;0.10;0.10;;;8.90;99.90;;;;;;5020910;28;20035;-86
2021/04/21 03:26:59;;;;;;;0.13;0.13;;;8.90;99.90;;;;;;4998382;28;20026;-87
2021/04/21 03:29:50;;;;;;;0.20;0.20;;;8.90;99.90;;;;;;5000542;28;20022;-87
2021/04/21 03:32:33;;;;;;;0.60;0.32;;;9.00;99.90;;;;;;5004033;28;20075;-86
2021/04/21 03:35:01;;;;;;;0.28;0.25;;;8.90;99.90;;;;;;4992810;28;20433;-87
2021/04/21 03:37:31;;;;;;;0.10;0.10;;;8.90;99.90;;;;;;4994182;28;20029;-87
2021/04/21 03:39:57;;;;;;;0.10;0.10;;;8.90;99.90;;;;;;4993114;28;20022;-87
2021/04/21 03:42:23;;;;;;;0.20;0.20;;;8.90;99.90;;;;;;5000405;28;20030;-86
2021/04/21 03:44:49;;;;;;;0.20;0.20;;;8.90;99.90;;;;;;4994966;28;20809;-86
2021/04/21 03:47:15;;;;;;;0.20;0.20;;;8.90;99.90;;;;;;4991484;28;20018;-88
2021/04/21 03:49:42;;;;;;;0.17;0.17;;;8.80;99.90;;;;;;5013932;28;20407;-87
2021/04/21 03:52:11;;;;;;;0.28;0.28;;;8.90;99.90;;;;;;5003008;28;20051;-86
2021/04/21 03:54:40;;;;;;;0.20;0.20;;;8.90;99.90;;;;;;5001080;28;20030;-86
2021/04/21 03:57:09;;;;;;;0.30;0.30;;;8.80;99.90;;;;;;5002465;28;20038;-86
2021/04/21 03:59:36;;;;;;;0.13;0.13;;;8.80;99.90;;;;;;5001937;28;20057;-86
2021/04/21 04:02:06;;;;;;;0.10;0.10;;;8.70;99.90;;;;;;5000612;28;20041;-86
2021/04/21 04:04:37;;;;;;;0.65;0.65;;;8.70;99.90;;;;;;5004262;28;20022;-86
2021/04/21 04:07:08;;;;;;;0.35;0.35;;;8.70;99.90;;;;;;5004577;28;20023;-86
2021/04/21 04:09:37;;;;;;;0.10;0.10;;;8.70;99.90;;;;;;4997930;28;20018;-87
2021/04/21 04:12:05;;;;;;;0.10;0.10;;;8.60;99.90;;;;;;5002552;28;20041;-86
2021/04/21 04:14:33;;;;;;;0.20;0.20;;;8.60;99.90;;;;;;5001513;28;20486;-86
2021/04/21 04:17:01;;;;;;;0.10;0.10;;;8.60;99.90;;;;;;5009537;28;20033;-86
2021/04/21 04:19:30;;;;;;;0.10;0.10;;;8.60;99.90;;;;;;4998845;28;20946;-86
2021/04/21 04:22:05;;;;;;;0.47;0.25;;;8.60;99.90;;;;;;5005793;28;20596;-86
2021/04/21 04:24:45;;;;;;;0.10;0.10;;;8.60;99.90;;;;;;5000777;28;20030;-87
2021/04/21 04:27:18;;;;;;;0.10;0.10;;;8.70;99.90;;;;;;5003255;28;20030;-86
2021/04/21 04:29:46;;;;;;;0.10;0.10;;;8.70;99.90;;;;;;5009785;28;20501;-87
2021/04/21 04:32:14;;;;;;;0.30;0.30;;;8.70;99.90;;;;;;5008550;28;20037;-86
2021/04/21 04:34:52;;;;;;;0.57;0.57;;;8.70;99.90;;;;;;5006912;28;20034;-86
2021/04/21 04:37:24;;;;;;;0.35;0.35;;;8.70;99.90;;;;;;5004802;28;21405;-87
2021/04/21 04:39:51;;;;;;;0.10;0.10;;;8.80;99.90;;;;;;5000320;28;20109;-86
2021/04/21 04:42:17;;;;;;;2.30;0.60;;;8.70;99.90;;;;;;4995838;28;20037;-86
2021/04/21 04:44:46;;;;;;;0.03;0.03;;;8.60;99.90;;;;;;4999962;28;20030;-85
2021/04/21 04:47:37;;;;;;;0.10;0.10;;;8.70;99.90;;;;;;4991020;28;20027;-86
2021/04/21 04:50:07;;;;;;;0.45;0.45;;;8.60;99.90;;;;;;5003494;28;20018;-85
2021/04/21 04:52:38;;;;;;;0.35;0.30;;;8.70;99.90;;;;;;4999850;28;20033;-84
2021/04/21 04:55:06;;;;;;;0.10;0.10;;;8.70;99.90;;;;;;4997440;28;20042;-85
2021/04/21 04:57:33;;;;;;;0.03;0.03;;;8.80;99.90;;;;;;4998342;28;20018;-87
2021/04/21 05:00:01;;;;;;;0.38;0.38;;;8.80;99.90;;;;;;4999642;28;20041;-86
2021/04/21 05:02:34;;;;;;;0.20;0.20;;;8.80;99.90;;;;;;5004446;28;20103;-87
2021/04/21 05:05:03;;;;;;;0.10;0.10;;;8.70;99.90;;;;;;4990061;28;20516;-87
2021/04/21 05:07:44;;;;;;;0.40;0.40;;;8.80;99.90;;;;;;4998784;28;20791;-88
2021/04/21 05:10:17;;;;;;;0.10;0.10;;;8.80;99.90;;;;;;4998311;28;20030;-87
2021/04/21 05:12:44;;;;;;;0.10;0.10;;;8.80;99.90;;;;;;5001302;28;20029;-86
2021/04/21 05:15:37;;;;;;;0.40;0.40;;;8.80;99.90;;;;;;4996829;28;20418;-87
2021/04/21 05:18:15;;;;;;;0.17;0.17;;;8.80;99.90;;;;;;4997531;28;20042;-84
2021/04/21 05:20:56;;;;;;;0.20;0.20;;;8.80;99.90;;;;;;5005045;28;20105;-85
2021/04/21 05:23:37;;;;;;;0.10;0.10;;;8.80;99.90;;;;;;5001206;28;20054;-84
2021/04/21 05:26:34;;;;;;;0.25;0.25;;;8.70;99.90;;;;;;4999162;28;20690;-84
2021/04/21 05:29:24;;;;;;;0.00;0.00;;;8.60;99.90;;;;;;4999523;28;20049;-84
2021/04/21 05:32:38;;;;;;;0.00;0.00;;;8.70;99.90;;;;;;5019659;28;20030;-84
2021/04/21 05:35:41;;;;;;;0.10;0.10;;;8.80;99.90;;;;;;4990755;28;20487;-84
2021/04/21 05:38:44;;;;;;;0.10;0.10;;;8.90;99.90;;;;;;5000471;28;20062;-84
2021/04/21 05:41:24;;;;;;;0.00;0.00;;;8.90;99.90;;;;;;5002559;28;20033;-84
2021/04/21 05:44:35;;;;;;;0.00;0.00;;;8.90;99.90;;;;;;4996938;28;20041;-84
2021/04/21 05:47:34;;;;;;;0.08;0.08;;;9.10;99.90;;;;;;5004322;28;20053;-84
2021/04/21 05:50:39;;;;;;;0.22;0.22;;;9.10;99.90;;;;;;5003635;28;20041;-85
2021/04/21 05:53:27;;;;;;;0.32;0.25;;;9.20;99.90;;;;;;5023938;28;20121;-85
2021/04/21 05:56:11;;;;;;;0.20;0.20;;;9.10;99.90;;;;;;5009397;28;20505;-85
2021/04/21 05:59:08;;;;;;;0.10;0.10;;;9.30;99.90;;;;;;5009189;28;20034;-89
2021/04/21 06:01:36;;;;;;;0.10;0.10;;;9.40;99.90;;;;;;5009412;28;20034;-87
2021/04/21 06:04:03;;;;;;;0.10;0.10;;;9.60;99.90;;;;;;5009312;28;20544;-87
2021/04/21 06:06:29;;;;;;;0.30;0.30;;;9.80;99.90;;;;;;5009386;28;20219;-88
2021/04/21 06:08:55;;;;;;;0.35;0.30;;;9.70;99.90;;;;;;5008850;28;20014;-88
2021/04/21 06:11:30;;;;;;;0.00;0.00;;;9.90;99.90;;;;;;5008991;28;20022;-87
2021/04/21 06:13:59;;;;;;;0.17;0.17;;;9.90;99.90;;;;;;5009217;28;20057;-88
2021/04/21 06:16:31;;;;;;;0.00;0.00;;;10.00;99.90;;;;;;5002304;28;20475;-88
2021/04/21 06:19:05;;;;;;;0.00;0.00;;;10.20;99.90;;;;;;4993929;28;20101;-88
2021/04/21 06:21:39;;;;;;;5.25;0.90;;;10.40;99.90;;;;;;4999796;28;20080;-88
2021/04/21 06:24:25;;;;;;;0.30;0.30;;;10.30;99.90;;;;;;5017524;28;20046;-88
2021/04/21 06:26:52;;;;;;;0.00;0.00;;;10.30;99.90;;;;;;4993725;28;20109;-88
2021/04/21 06:29:17;;;;;;;1.00;0.63;;;10.30;99.90;;;;;;5005729;28;20402;-88
2021/04/21 06:31:52;;;;;;;0.15;0.15;;;10.40;99.90;;;;;;5003920;28;20022;-87
2021/04/21 06:34:18;;;;;;;0.00;0.00;;;10.30;99.90;;;;;;5020403;28;20457;-88
2021/04/21 06:36:47;;;;;;;0.10;0.10;;;10.30;99.90;;;;;;5005174;28;20110;-89
2021/04/21 06:39:16;;;;;;;0.00;0.00;;;10.60;99.90;;;;;;4998432;28;20097;-89
2021/04/21 06:41:43;;;;;;;0.30;0.30;;;10.70;99.90;;;;;;4998390;28;20036;-89
2021/04/21 06:44:10;;;;;;;0.43;0.43;;;10.80;99.90;;;;;;4990504;28;20093;-88
2021/04/21 06:46:36;;;;;;;0.10;0.10;;;10.80;99.90;;;;;;5000836;28;20486;-89
2021/04/21 06:49:03;;;;;;;0.10;0.10;;;10.80;99.90;;;;;;5002245;28;20022;-88
2021/04/21 06:51:31;;;;;;;1.50;1.17;;;11.10;99.90;;;;;;5020025;28;20084;-88
2021/04/21 06:53:59;;;;;;;0.10;0.10;;;11.20;99.90;;;;;;5008450;28;20453;-89
2021/04/21 06:56:30;;;;;;;0.30;0.30;;;11.40;99.90;;;;;;5011138;28;20109;-85
2021/04/21 06:59:00;;;;;;;0.08;0.08;;;11.50;99.90;;;;;;5001315;28;20061;-87
2021/04/21 07:01:29;;;;;;;0.10;0.10;;;11.80;99.90;;;;;;5005595;28;20068;-88
2021/04/21 07:04:16;;;;;;;0.13;0.13;;;11.80;99.90;;;;;;5009071;28;20037;-87
2021/04/21 07:06:43;;;;;;;0.10;0.10;;;11.50;99.90;;;;;;5001863;28;20040;-86
2021/04/21 07:09:20;;;;;;;0.28;0.28;;;11.50;99.90;;;;;;5017997;28;20033;-87
2021/04/21 07:11:58;;;;;;;0.10;0.10;;;11.80;99.90;;;;;;5011890;28;20038;-87
2021/04/21 07:14:26;;;;;;;0.25;0.25;;;12.10;99.90;;;;;;5011082;28;20022;-87
2021/04/21 07:16:54;;;;;;;1.00;0.90;;;12.10;99.90;;;;;;5011330;28;20037;-87
2021/04/21 07:19:22;;;;;;;0.10;0.10;;;12.40;99.90;;;;;;5008815;28;20030;-87
2021/04/21 07:21:49;;;;;;;0.10;0.10;;;12.30;99.90;;;;;;4994783;28;20022;-87
2021/04/21 07:24:17;;;;;;;1.08;0.57;;;12.50;99.90;;;;;;5002674;28;20026;-87
2021/04/21 07:26:45;;;;;;;0.10;0.10;;;13.00;99.90;;;;;;5004648;28;20149;-87
2021/04/21 07:29:25;;;;;;;0.35;0.35;;;13.00;99.90;;;;;;5007394;28;20037;-88
2021/04/21 07:31:55;;;;;;;0.20;0.20;;;13.60;99.90;;;;;;5002824;28;20053;-87
2021/04/21 07:34:29;;;;;;;6.72;0.50;;;13.50;99.90;;;;;;4999540;28;20030;-87
2021/04/21 07:36:54;;;;;;;0.17;0.17;;;13.70;99.90;;;;;;4997980;28;20406;-88
2021/04/21 07:39:20;;;;;;;0.30;0.30;;;13.40;99.90;;;;;;5010313;28;20041;-87
2021/04/21 07:41:49;;;;;;;0.22;0.22;;;14.50;99.90;;;;;;5006655;28;20498;-86
2021/04/21 07:44:51;;;;;;;0.20;0.20;;;14.40;99.90;;;;;;5008271;28;20105;-86
2021/04/21 07:47:22;;;;;;;0.30;0.30;;;15.40;99.90;;;;;;4986047;28;20061;-87
2021/04/21 07:50:00;;;;;;;0.25;0.25;;;14.90;99.90;;;;;;5026191;28;20110;-86
2021/04/21 07:52:32;;;;;;;0.38;0.38;;;14.60;99.90;;;;;;5002645;28;20121;-86
2021/04/21 07:55:16;;;;;;;0.60;0.25;;;14.40;99.90;;;;;;4998653;28;20018;-86
2021/04/21 07:57:45;;;;;;;1.05;0.95;;;14.70;99.90;;;;;;4993484;28;20113;-86
2021/04/21 08:00:23;;;;;;;0.08;0.08;;;14.10;99.90;;;;;;4999319;28;20049;-87
2021/04/21 08:02:49;;;;;;;0.10;0.10;;;14.50;99.90;;;;;;5005483;28;20103;-84
2021/04/21 08:05:15;;;;;;;0.17;0.17;;;13.90;99.90;;;;;;5002669;28;20022;-84
2021/04/21 08:07:57;;;;;;;0.15;0.15;;;14.60;99.90;;;;;;5005594;28;20029;-84
2021/04/21 08:10:28;;;;;;;0.20;0.20;;;15.20;99.90;;;;;;5008394;28;20038;-86
2021/04/21 08:12:57;;;;;;;0.47;0.47;;;14.90;99.90;;;;;;5023507;28;20089;-86
2021/04/21 08:15:31;;;;;;;1.45;1.00;;;14.50;99.90;;;;;;5003406;28;20030;-87
2021/04/21 08:18:04;;;;;;;0.10;0.10;;;13.90;99.90;;;;;;5005100;28;20034;-86
2021/04/21 08:20:39;;;;;;;0.30;0.30;;;14.80;99.90;;;;;;5017283;28;20044;-85
2021/04/21 08:23:06;;;;;;;1.35;0.95;;;15.60;99.90;;;;;;5003905;28;20414;-86
2021/04/21 08:25:32;;;;;;;0.32;0.32;;;16.30;99.90;;;;;;5000917;28;20021;-88
2021/04/21 08:28:00;;;;;;;0.30;0.30;;;16.20;99.90;;;;;;5002936;28;20045;-89
2021/04/21 08:30:29;;;;;;;0.20;0.20;;;16.50;99.90;;;;;;5007446;28;20077;-87
2021/04/21 08:32:55;;;;;;;1.10;0.80;;;15.30;99.90;;;;;;4999710;28;20116;-87
2021/04/21 08:35:22;;;;;;;0.30;0.30;;;15.00;99.90;;;;;;5005242;28;20038;-87
2021/04/21 08:37:47;;;;;;;0.57;0.38;;;15.60;99.90;;;;;;4994471;28;20103;-87
2021/04/21 08:40:17;;;;;;;0.10;0.10;;;15.40;99.90;;;;;;5007877;28;20034;-87
2021/04/21 08:42:46;;;;;;;0.40;0.40;;;16.40;99.90;;;;;;5010036;28;20056;-87
2021/04/21 08:45:14;;;;;;;0.80;0.80;;;15.10;99.90;;;;;;4993326;28;20029;-87
2021/04/21 08:47:41;;;;;;;0.10;0.10;;;15.00;99.90;;;;;;5007061;28;20022;-85
2021/04/21 08:50:09;;;;;;;0.30;0.30;;;15.70;99.90;;;;;;5000834;28;20033;-85
2021/04/21 08:52:51;;;;;;;0.32;0.30;;;19.10;99.90;;;;;;5001305;28;20018;-86
2021/04/21 08:55:18;;;;;;;0.30;0.30;;;19.40;99.10;;;;;;5005862;28;20831;-88
2021/04/21 08:57:47;;;;;;;0.43;0.43;;;19.20;98.70;;;;;;5006944;28;20645;-86
2021/04/21 09:00:15;;;;;;;0.00;0.00;;;19.00;98.10;;;;;;5001337;28;20033;-86
2021/04/21 09:02:42;;;;;;;0.20;0.20;;;18.10;98.40;;;;;;4992352;28;20034;-84
2021/04/21 09:05:09;;;;;;;0.13;0.13;;;18.00;98.00;;;;;;5006107;28;20398;-85
2021/04/21 09:07:38;;;;;;;0.40;0.40;;;17.60;98.30;;;;;;5006230;28;20101;-86
2021/04/21 09:10:06;;;;;;;0.73;0.68;;;16.70;98.80;;;;;;4999669;28;20023;-86
2021/04/21 09:12:32;;;;;;;0.15;0.15;;;16.40;99.60;;;;;;5007094;28;20021;-86
2021/04/21 09:14:57;;;;;;;0.10;0.10;;;19.10;98.50;;;;;;5009379;28;20029;-84
2021/04/21 09:17:24;;;;;;;0.13;0.13;;;20.70;92.50;;;;;;5009703;28;20453;-84
2021/04/21 09:19:51;;;;;;;0.17;0.17;;;17.10;96.60;;;;;;4986360;28;20026;-85
2021/04/21 09:22:16;;;;;;;0.40;0.15;;;16.10;97.50;;;;;;5003402;28;20056;-86
2021/04/21 09:24:43;;;;;;;0.33;0.33;;;15.30;99.10;;;;;;5007986;28;20030;-85
2021/04/21 09:27:26;;;;;;;0.50;0.45;;;15.10;98.80;;;;;;5009217;28;20109;-85
2021/04/21 09:30:09;;;;;;;0.30;0.30;;;14.60;99.90;;;;;;4997436;28;20058;-84
2021/04/21 09:32:47;;;;;;;0.10;0.10;;;14.90;99.90;;;;;;4999897;28;20109;-84
2021/04/21 09:35:32;;;;;;;0.52;0.52;;;14.60;99.90;;;;;;5003543;28;20589;-84
2021/04/21 09:38:11;;;;;;;0.55;0.38;;;15.20;99.90;;;;;;5000511;28;20030;-86
2021/04/21 09:40:54;;;;;;;0.55;0.55;;;15.10;99.40;;;;;;5001406;28;20026;-84
2021/04/21 09:43:36;;;;;;;0.38;0.20;;;15.00;99.60;;;;;;4994168;28;20038;-83
2021/04/21 09:46:23;;;;;;;1.02;0.57;;;14.80;99.80;;;;;;4995874;28;20076;-83
2021/04/21 09:49:11;;;;;;;0.30;0.30;;;15.60;99.90;;;;;;5003275;28;20549;-83
2021/04/21 09:51:42;;;;;;;0.20;0.20;;;15.90;98.40;;;;;;4986118;28;20034;-84
2021/04/21 09:54:11;;;;;;;1.13;0.68;;;14.90;99.20;;;;;;5002000;28;20042;-87
2021/04/21 09:56:38;;;;;;;0.32;0.32;;;15.30;99.40;;;;;;4996688;28;20034;-84
2021/04/21 09:59:07;;;;;;;0.50;0.50;;;14.70;99.60;;;;;;4999076;28;20037;-85
2021/04/21 10:01:39;;;;;;;0.20;0.20;;;15.10;99.40;;;;;;5003759;28;20101;-86
2021/04/21 10:04:17;;;;;;;0.63;0.63;;;15.00;99.20;;;;;;4999539;28;20515;-87
2021/04/21 10:06:54;;;;;;;0.25;0.25;;;14.90;99.10;;;;;;5000058;28;20024;-86
2021/04/21 10:09:31;;;;;;;0.22;0.22;;;14.80;99.50;;;;;;4999295;28;20030;-85
2021/04/21 10:12:20;;;;;;;0.20;0.20;;;14.50;99.90;;;;;;4992389;28;20368;-85
2021/04/21 10:15:13;;;;;;;1.45;0.68;;;14.60;99.90;;;;;;4999602;28;20044;-85
2021/04/21 10:17:45;;;;;;;0.00;0.00;;;14.10;99.90;;;;;;4999357;28;20091;-86
2021/04/21 10:20:12;;;;;;;0.17;0.17;;;14.00;99.90;;;;;;4998497;28;20034;-85
2021/04/21 10:22:38;;;;;;;;;;;14.60;99.80;;;;;;5001730;28;20054;-86
2021/04/21 10:25:07;;;;;;;0.10;0.10;;;14.10;99.90;;;;;;4997571;28;19913;-85
2021/04/21 10:27:34;;;;;;;0.60;0.45;;;14.00;99.90;;;;;;4999772;28;20037;-85
2021/04/21 10:30:02;;;;;;;0.20;0.20;;;13.90;99.90;;;;;;4995822;28;21462;-86
2021/04/21 10:32:29;;;;;;;0.68;0.68;;;14.10;99.90;;;;;;5024276;28;20025;-85
2021/04/21 10:34:55;;;;;;;4.93;0.82;;;14.20;99.90;;;;;;5010142;28;20390;-85
2021/04/21 10:37:21;;;;;;;4.28;1.10;;;13.80;99.90;;;;;;4998046;28;20045;-85
2021/04/21 10:39:53;;;;;;;0.20;0.20;;;14.30;99.90;;;;;;5008896;28;20021;-85
2021/04/21 10:42:20;;;;;;;0.13;0.13;;;13.90;99.90;;;;;;5001736;28;20039;-85
2021/04/21 10:44:48;;;;;;;0.30;0.30;;;14.40;99.90;;;;;;5002750;28;20028;-85
2021/04/21 10:47:17;;;;;;;0.32;0.32;;;14.70;99.20;;;;;;5000976;28;20483;-83
2021/04/21 10:50:00;;;;;;;0.10;0.10;;;14.40;99.90;;;;;;5023628;28;20108;-85
2021/04/21 10:52:26;;;;;;;0.25;0.22;;;14.10;99.90;;;;;;5000128;28;20549;-84
2021/04/21 10:54:54;;;;;;;0.20;0.17;;;14.20;99.90;;;;;;5000923;28;20049;-83
2021/04/21 10:57:20;;;;;;;3.90;0.47;;;14.60;99.90;;;;;;4999792;28;20145;-86
2021/04/21 11:00:04;;;;;;;0.37;0.37;;;15.80;99.10;;;;;;4997665;28;20916;-86
2021/04/21 11:02:47;;;;;;;0.10;0.10;;;15.00;99.90;;;;;;5000293;28;20057;-86
2021/04/21 11:05:28;;;;;;;0.52;0.30;;;15.10;99.40;;;;;;4999909;28;20100;-85
2021/04/21 11:08:02;;;;;;;0.17;0.17;;;15.60;99.90;;;;;;4999281;28;20026;-84
2021/04/21 11:10:49;;;;;;;0.25;0.25;;;13.60;99.90;;;;;;4995985;28;20038;-84
2021/04/21 11:13:46;;;;;;;0.20;0.20;;;14.10;99.90;;;;;;5015024;28;20037;-85
2021/04/21 11:16:12;;;;;;;0.13;0.13;;;15.10;99.80;;;;;;5001180;28;20096;-85
2021/04/21 11:18:39;;;;;;;0.10;0.10;;;15.50;99.20;;;;;;5001553;28;20066;-86
2021/04/21 11:21:07;;;;;;;0.00;0.00;;;16.80;98.10;;;;;;5002638;28;20034;-84
2021/04/21 11:24:01;;;;;;;0.20;0.20;;;17.50;95.90;;;;;;4997285;28;20034;-84
2021/04/21 11:26:28;;;;;;;0.65;0.45;;;15.90;98.60;;;;;;5003347;28;20021;-83
2021/04/21 11:28:57;;;;;;;0.10;0.10;;;16.20;97.70;;;;;;4998528;28;20022;-84
2021/04/21 11:31:45;;;;;;;0.20;0.20;;;16.30;97.60;;;;;;5018232;28;20493;-84
2021/04/21 11:34:37;;;;;;;0.10;0.10;;;15.70;98.00;;;;;;4991798;28;20057;-83
2021/04/21 11:37:13;;;;;;;0.22;0.22;;;16.70;97.00;;;;;;4999885;28;20080;-83
2021/04/21 11:39:42;;;;;;;0.28;0.28;;;16.10;96.90;;;;;;5002508;28;20034;-83
2021/04/21 11:42:41;;;;;;;3.83;1.42;;;15.80;98.10;;;;;;4999797;28;20030;-83
2021/04/21 11:45:27;;;;;;;0.13;0.13;;;16.20;98.00;;;;;;4999517;28;20046;-83
2021/04/21 11:48:07;;;;;;;0.20;0.20;;;16.70;96.70;;;;;;4999138;28;20544;-83
2021/04/21 11:50:35;;;;;;;0.17;0.17;;;15.90;97.10;;;;;;5007168;28;20053;-83
2021/04/21 11:53:07;;;;;;;0.40;0.40;;;16.00;96.80;;;;;;5007692;28;20034;-83
2021/04/21 11:55:50;;;;;;;0.15;0.15;;;15.70;98.10;;;;;;5007604;28;20045;-85
2021/04/21 11:58:26;;;;;;;0.47;0.47;;;15.20;97.90;;;;;;5006715;28;20029;-85
2021/04/21 12:00:56;;;;;;;0.40;0.40;;;16.10;97.90;;;;;;5000610;28;20036;-85
2021/04/21 12:03:33;;;;;;;0.32;0.32;;;16.30;96.70;;;;;;5001574;28;20034;-85
2021/04/21 12:06:01;;;;;;;0.43;0.43;;;15.90;96.70;;;;;;5004062;28;20129;-86
2021/04/21 12:08:29;;;;;;;0.20;0.20;;;16.60;96.20;;;;;;4999403;28;20034;-86
2021/04/21 12:10:58;;;;;;;15.30;0.75;;;15.90;97.40;;;;;;4996139;28;20557;-86
2021/04/21 12:13:26;;;;;;;0.10;0.10;;;15.70;97.90;;;;;;5001653;28;20022;-86
2021/04/21 12:16:14;;;;;;;0.52;0.52;;;15.60;98.10;;;;;;4998865;28;20405;-85
2021/04/21 12:18:43;;;;;;;0.10;0.10;;;15.80;96.80;;;;;;4997229;28;20407;-87
2021/04/21 12:21:15;;;;;;;0.10;0.10;;;16.20;96.70;;;;;;5001305;28;20021;-86
2021/04/21 12:23:47;;;;;;;0.13;0.13;;;16.70;95.40;;;;;;4996739;28;20387;-86
2021/04/21 12:26:16;;;;;;;0.38;0.13;;;16.50;95.70;;;;;;5020416;28;20026;-86
2021/04/21 12:28:44;;;;;;;0.30;0.30;;;15.90;96.10;;;;;;5000439;28;20022;-86
2021/04/21 12:31:10;;;;;;;2.35;0.30;;;16.20;96.50;;;;;;5005632;28;20560;-85
2021/04/21 12:33:36;;;;;;;0.30;0.30;;;16.90;95.30;;;;;;4999159;28;20037;-86
2021/04/21 12:36:02;;;;;;;0.10;0.10;;;16.30;96.00;;;;;;5005821;28;20030;-85
2021/04/21 12:38:37;;;;;;;0.23;0.23;;;16.20;96.10;;;;;;5005186;28;20021;-86
2021/04/21 12:41:05;;;;;;;0.13;0.13;;;17.30;95.10;;;;;;5007159;28;20030;-86
2021/04/21 12:43:33;;;;;;;0.20;0.20;;;17.80;94.40;;;;;;5008085;28;20033;-85
2021/04/21 12:46:19;;;;;;;0.20;0.20;;;17.70;94.30;;;;;;5002040;28;20132;-87
2021/04/21 12:48:57;;;;;;;0.10;0.10;;;17.10;94.70;;;;;;5002721;28;20022;-85
2021/04/21 12:51:31;;;;;;;0.88;0.85;;;17.50;94.00;;;;;;5003090;28;20030;-86
2021/04/21 12:54:04;;;;;;;0.50;0.50;;;17.10;94.20;;;;;;5001589;28;20040;-86
2021/04/21 12:56:39;;;;;;;0.30;0.30;;;16.80;95.00;;;;;;4998361;28;20057;-88
2021/04/21 12:59:19;;;;;;;0.20;0.20;;;16.60;94.90;;;;;;5002142;28;20030;-89
2021/04/21 13:01:46;;;;;;;0.30;0.30;;;16.50;95.60;;;;;;5003464;28;20098;-88
2021/04/21 13:04:14;;;;;;;0.65;0.65;;;16.90;94.80;;;;;;5021011;28;20036;-89
2021/04/21 13:06:48;;;;;;;0.20;0.20;;;17.20;94.00;;;;;;5004987;28;20029;-88
2021/04/21 13:09:19;;;;;;;0.32;0.25;;;16.80;94.40;;;;;;5006280;28;20472;-87
2021/04/21 13:11:58;;;;;;;0.35;0.35;;;16.20;95.60;;;;;;4995431;28;20022;-87
2021/04/21 13:14:38;;;;;;;0.17;0.17;;;15.90;96.10;;;;;;5015991;28;20037;-87
2021/04/21 13:17:05;;;;;;;0.20;0.20;;;16.10;95.90;;;;;;5023000;28;20037;-87
2021/04/21 13:19:34;;;;;;;0.10;0.10;;;16.50;95.10;;;;;;5000119;28;20055;-87
2021/04/21 13:22:08;;;;;;;0.10;0.10;;;16.20;95.10;;;;;;4997980;28;20128;-88
2021/04/21 13:25:00;;;;;;;1.08;0.30;;;16.70;94.60;;;;;;5001555;28;20026;-87
2021/04/21 13:27:35;;;;;;;0.75;0.73;;;16.70;94.60;;;;;;4992281;28;20041;-88
2021/04/21 13:30:14;;;;;;;0.05;0.05;;;16.90;94.10;;;;;;4998924;28;20760;-87